sensor_id;sensor_type;location;lat;lon;timestamp;temperature;humidity
28725;DHT22;43472;48.980;9.646;2023-04-03T00:02:44;6.00;99.90
28725;DHT22;43472;48.980;9.646;2023-04-03T00:07:46;5.90;99.90
28725;DHT22;43472;48.980;9.646;2023-04-03T00:12:48;6.00;99.90
28725;DHT22;43472;48.980;9.646;2023-04-03T00:17:50;6.00;99.90
28725;DHT22;43472;48.980;9.646;2023-04-03T00:22:53;5.90;99.90
28725;DHT22;43472;48.980;9.646;2023-04-03T00:27:55;6.00;99.90
28725;DHT22;43472;48.980;9.646;2023-04-03T00:32:57;6.10;99.90
28725;DHT22;43472;48.980;9.646;2023-04-03T00:37:59;6.10;99.90
28725;DHT22;43472;48.980;9.646;2023-04-03T00:43:01;6.10;99.90
28725;DHT22;43472;48.980;9.646;2023-04-03T00:48:10;6.10;99.90
28725;DHT22;43472;48.980;9.646;2023-04-03T00:53:18;6.10;99.90
28725;DHT22;43472;48.980;9.646;2023-04-03T00:58:25;6.10;99.90
28725;DHT22;43472;48.980;9.646;2023-04-03T01:03:29;6.10;99.90
28725;DHT22;43472;48.980;9.646;2023-04-03T01:08:33;6.10;99.90
28725;DHT22;43472;48.980;9.646;2023-04-03T01:13:35;6.00;99.90
28725;DHT22;43472;48.980;9.646;2023-04-03T01:18:39;6.10;99.90
28725;DHT22;43472;48.980;9.646;2023-04-03T01:28:48;6.00;99.90
28725;DHT22;43472;48.980;9.646;2023-04-03T01:33:51;6.00;99.90
28725;DHT22;43472;48.980;9.646;2023-04-03T01:38:54;5.80;99.90
28725;DHT22;43472;48.980;9.646;2023-04-03T01:43:56;6.00;99.90
28725;DHT22;43472;48.980;9.646;2023-04-03T01:48:58;6.00;99.90
28725;DHT22;43472;48.980;9.646;2023-04-03T01:53:59;6.10;99.90
28725;DHT22;43472;48.980;9.646;2023-04-03T01:59:01;6.00;99.90
28725;DHT22;43472;48.980;9.646;2023-04-03T02:04:03;6.00;99.90
28725;DHT22;43472;48.980;9.646;2023-04-03T02:09:05;6.10;99.90
28725;DHT22;43472;48.980;9.646;2023-04-03T02:14:08;6.10;99.90
28725;DHT22;43472;48.980;9.646;2023-04-03T02:19:10;6.00;99.90
28725;DHT22;43472;48.980;9.646;2023-04-03T02:24:12;6.10;99.90
28725;DHT22;43472;48.980;9.646;2023-04-03T02:29:14;5.90;99.90
28725;DHT22;43472;48.980;9.646;2023-04-03T02:34:16;6.00;99.90
28725;DHT22;43472;48.980;9.646;2023-04-03T02:39:18;6.00;99.90
28725;DHT22;43472;48.980;9.646;2023-04-03T02:44:20;6.00;99.90
28725;DHT22;43472;48.980;9.646;2023-04-03T02:49:22;6.10;99.90
28725;DHT22;43472;48.980;9.646;2023-04-03T02:54:24;5.80;99.90
28725;DHT22;43472;48.980;9.646;2023-04-03T02:59:30;5.90;99.90
28725;DHT22;43472;48.980;9.646;2023-04-03T03:04:32;6.10;99.90
28725;DHT22;43472;48.980;9.646;2023-04-03T03:09:33;6.10;99.90
28725;DHT22;43472;48.980;9.646;2023-04-03T03:14:35;6.00;99.90
28725;DHT22;43472;48.980;9.646;2023-04-03T03:19:37;5.90;99.90
28725;DHT22;43472;48.980;9.646;2023-04-03T03:24:39;5.90;99.90
28725;DHT22;43472;48.980;9.646;2023-04-03T03:29:42;5.80;99.90
28725;DHT22;43472;48.980;9.646;2023-04-03T03:34:44;5.90;99.90
28725;DHT22;43472;48.980;9.646;2023-04-03T03:39:46;5.90;99.90
28725;DHT22;43472;48.980;9.646;2023-04-03T03:44:48;5.70;99.90
28725;DHT22;43472;48.980;9.646;2023-04-03T03:49:50;5.70;99.90
28725;DHT22;43472;48.980;9.646;2023-04-03T03:54:52;5.80;99.90
28725;DHT22;43472;48.980;9.646;2023-04-03T03:59:55;5.80;99.90
28725;DHT22;43472;48.980;9.646;2023-04-03T04:04:57;5.80;99.90
28725;DHT22;43472;48.980;9.646;2023-04-03T04:10:00;5.70;99.90
28725;DHT22;43472;48.980;9.646;2023-04-03T04:15:03;5.60;99.90
28725;DHT22;43472;48.980;9.646;2023-04-03T04:20:05;5.60;99.90
28725;DHT22;43472;48.980;9.646;2023-04-03T04:25:07;5.50;99.90
28725;DHT22;43472;48.980;9.646;2023-04-03T04:30:10;5.30;99.90
28725;DHT22;43472;48.980;9.646;2023-04-03T04:35:12;5.20;99.90
28725;DHT22;43472;48.980;9.646;2023-04-03T04:40:17;5.20;99.90
28725;DHT22;43472;48.980;9.646;2023-04-03T04:45:20;5.20;99.90
28725;DHT22;43472;48.980;9.646;2023-04-03T04:50:22;5.00;99.90
28725;DHT22;43472;48.980;9.646;2023-04-03T04:55:24;4.80;99.90
28725;DHT22;43472;48.980;9.646;2023-04-03T05:00:26;4.60;99.90
28725;DHT22;43472;48.980;9.646;2023-04-03T05:05:28;4.70;99.90
28725;DHT22;43472;48.980;9.646;2023-04-03T05:10:30;4.70;99.90
28725;DHT22;43472;48.980;9.646;2023-04-03T05:15:32;4.90;99.90
28725;DHT22;43472;48.980;9.646;2023-04-03T05:20:35;4.90;99.90
28725;DHT22;43472;48.980;9.646;2023-04-03T05:25:38;5.10;99.90
28725;DHT22;43472;48.980;9.646;2023-04-03T05:30:40;5.10;99.90
28725;DHT22;43472;48.980;9.646;2023-04-03T05:35:42;5.10;99.90
28725;DHT22;43472;48.980;9.646;2023-04-03T05:40:46;5.20;99.90
28725;DHT22;43472;48.980;9.646;2023-04-03T05:45:48;5.20;99.90
28725;DHT22;43472;48.980;9.646;2023-04-03T05:50:51;5.40;99.90
28725;DHT22;43472;48.980;9.646;2023-04-03T05:55:56;5.10;99.90
28725;DHT22;43472;48.980;9.646;2023-04-03T06:00:58;5.20;99.90
28725;DHT22;43472;48.980;9.646;2023-04-03T06:06:03;5.20;99.90
28725;DHT22;43472;48.980;9.646;2023-04-03T06:11:05;5.50;99.90
28725;DHT22;43472;48.980;9.646;2023-04-03T06:16:11;5.30;99.90
28725;DHT22;43472;48.980;9.646;2023-04-03T06:21:13;4.90;99.90
28725;DHT22;43472;48.980;9.646;2023-04-03T06:26:15;5.30;99.90
28725;DHT22;43472;48.980;9.646;2023-04-03T06:31:17;5.10;99.90
28725;DHT22;43472;48.980;9.646;2023-04-03T06:36:20;5.10;99.90
28725;DHT22;43472;48.980;9.646;2023-04-03T06:41:22;5.00;99.90
28725;DHT22;43472;48.980;9.646;2023-04-03T06:46:25;5.30;99.90
28725;DHT22;43472;48.980;9.646;2023-04-03T06:51:29;5.30;99.90
28725;DHT22;43472;48.980;9.646;2023-04-03T06:56:31;5.30;99.90
28725;DHT22;43472;48.980;9.646;2023-04-03T07:01:34;5.70;99.90
28725;DHT22;43472;48.980;9.646;2023-04-03T07:06:36;5.70;99.90
28725;DHT22;43472;48.980;9.646;2023-04-03T07:11:38;5.80;99.90
28725;DHT22;43472;48.980;9.646;2023-04-03T07:16:40;5.70;99.90
28725;DHT22;43472;48.980;9.646;2023-04-03T07:21:43;5.70;99.90
28725;DHT22;43472;48.980;9.646;2023-04-03T07:26:52;6.10;99.90
28725;DHT22;43472;48.980;9.646;2023-04-03T07:31:54;6.00;99.90
28725;DHT22;43472;48.980;9.646;2023-04-03T07:36:57;6.10;99.90
28725;DHT22;43472;48.980;9.646;2023-04-03T07:41:59;6.30;99.90
28725;DHT22;43472;48.980;9.646;2023-04-03T07:47:02;6.30;99.90
28725;DHT22;43472;48.980;9.646;2023-04-03T07:52:03;6.10;99.90
28725;DHT22;43472;48.980;9.646;2023-04-03T07:57:05;6.30;99.90
28725;DHT22;43472;48.980;9.646;2023-04-03T08:02:09;6.30;99.90
28725;DHT22;43472;48.980;9.646;2023-04-03T08:07:11;6.50;99.90
28725;DHT22;43472;48.980;9.646;2023-04-03T08:12:13;6.50;99.90
28725;DHT22;43472;48.980;9.646;2023-04-03T08:17:16;6.40;99.90
28725;DHT22;43472;48.980;9.646;2023-04-03T08:22:18;6.80;99.90
28725;DHT22;43472;48.980;9.646;2023-04-03T08:27:20;6.90;99.90
28725;DHT22;43472;48.980;9.646;2023-04-03T08:32:23;6.80;99.90
28725;DHT22;43472;48.980;9.646;2023-04-03T08:37:26;7.20;99.90
28725;DHT22;43472;48.980;9.646;2023-04-03T08:48:03;7.00;99.90
28725;DHT22;43472;48.980;9.646;2023-04-03T08:53:16;7.00;99.90
28725;DHT22;43472;48.980;9.646;2023-04-03T09:03:47;7.70;99.90
28725;DHT22;43472;48.980;9.646;2023-04-03T09:24:41;8.40;99.90
28725;DHT22;43472;48.980;9.646;2023-04-03T09:29:44;8.90;99.90
28725;DHT22;43472;48.980;9.646;2023-04-03T09:34:49;8.50;99.90
28725;DHT22;43472;48.980;9.646;2023-04-03T09:39:53;8.60;99.90
28725;DHT22;43472;48.980;9.646;2023-04-03T09:45:05;8.70;99.90
28725;DHT22;43472;48.980;9.646;2023-04-03T09:55:26;8.60;99.90
28725;DHT22;43472;48.980;9.646;2023-04-03T10:00:38;8.80;99.90
28725;DHT22;43472;48.980;9.646;2023-04-03T10:05:42;8.40;99.90
28725;DHT22;43472;48.980;9.646;2023-04-03T10:10:45;8.50;99.90
28725;DHT22;43472;48.980;9.646;2023-04-03T10:15:54;8.40;99.90
28725;DHT22;43472;48.980;9.646;2023-04-03T10:21:05;7.80;99.90
28725;DHT22;43472;48.980;9.646;2023-04-03T10:37:24;8.10;99.90
28725;DHT22;43472;48.980;9.646;2023-04-03T10:42:49;7.70;99.90
28725;DHT22;43472;48.980;9.646;2023-04-03T10:47:58;8.10;99.90
28725;DHT22;43472;48.980;9.646;2023-04-03T10:58:45;7.80;99.90
28725;DHT22;43472;48.980;9.646;2023-04-03T11:03:57;7.60;99.90
28725;DHT22;43472;48.980;9.646;2023-04-03T11:09:07;8.20;99.90
28725;DHT22;43472;48.980;9.646;2023-04-03T11:29:59;9.10;99.90
28725;DHT22;43472;48.980;9.646;2023-04-03T11:35:05;8.90;99.90
28725;DHT22;43472;48.980;9.646;2023-04-03T12:05:49;8.40;99.90
28725;DHT22;43472;48.980;9.646;2023-04-03T12:16:41;9.70;98.60
28725;DHT22;43472;48.980;9.646;2023-04-03T12:37:30;9.10;98.90
28725;DHT22;43472;48.980;9.646;2023-04-03T12:43:03;9.10;97.80
28725;DHT22;43472;48.980;9.646;2023-04-03T12:48:15;8.60;97.60
28725;DHT22;43472;48.980;9.646;2023-04-03T12:53:21;8.50;98.50
28725;DHT22;43472;48.980;9.646;2023-04-03T12:58:26;8.60;98.60
28725;DHT22;43472;48.980;9.646;2023-04-03T13:08:32;9.20;97.70
28725;DHT22;43472;48.980;9.646;2023-04-03T13:23:44;9.20;96.30
28725;DHT22;43472;48.980;9.646;2023-04-03T13:33:59;9.40;96.80
28725;DHT22;43472;48.980;9.646;2023-04-03T13:39:32;9.20;95.70
28725;DHT22;43472;48.980;9.646;2023-04-03T13:44:36;9.20;95.90
28725;DHT22;43472;48.980;9.646;2023-04-03T13:49:46;9.50;96.20
28725;DHT22;43472;48.980;9.646;2023-04-03T13:55:03;9.40;95.50
28725;DHT22;43472;48.980;9.646;2023-04-03T14:00:32;9.00;97.10
28725;DHT22;43472;48.980;9.646;2023-04-03T14:05:36;9.20;96.30
28725;DHT22;43472;48.980;9.646;2023-04-03T14:10:38;8.60;95.90
28725;DHT22;43472;48.980;9.646;2023-04-03T14:15:41;8.60;96.60
28725;DHT22;43472;48.980;9.646;2023-04-03T14:20:44;10.50;96.60
28725;DHT22;43472;48.980;9.646;2023-04-03T14:25:46;9.10;95.60
28725;DHT22;43472;48.980;9.646;2023-04-03T14:30:50;9.10;95.90
28725;DHT22;43472;48.980;9.646;2023-04-03T14:35:53;9.90;95.50
28725;DHT22;43472;48.980;9.646;2023-04-03T14:40:58;9.20;95.80
28725;DHT22;43472;48.980;9.646;2023-04-03T14:51:17;8.50;94.90
28725;DHT22;43472;48.980;9.646;2023-04-03T14:56:23;9.10;94.40
28725;DHT22;43472;48.980;9.646;2023-04-03T15:01:27;9.20;95.50
28725;DHT22;43472;48.980;9.646;2023-04-03T15:06:29;9.20;95.70
28725;DHT22;43472;48.980;9.646;2023-04-03T15:11:31;9.80;96.00
28725;DHT22;43472;48.980;9.646;2023-04-03T15:16:33;8.90;95.20
28725;DHT22;43472;48.980;9.646;2023-04-03T15:21:35;10.00;94.30
28725;DHT22;43472;48.980;9.646;2023-04-03T15:26:38;10.60;93.10
28725;DHT22;43472;48.980;9.646;2023-04-03T15:31:40;10.10;93.20
28725;DHT22;43472;48.980;9.646;2023-04-03T15:36:42;9.70;92.60
28725;DHT22;43472;48.980;9.646;2023-04-03T15:41:44;9.50;92.70
28725;DHT22;43472;48.980;9.646;2023-04-03T15:46:48;10.10;92.80
28725;DHT22;43472;48.980;9.646;2023-04-03T15:51:51;11.20;92.10
28725;DHT22;43472;48.980;9.646;2023-04-03T15:56:53;11.70;89.70
28725;DHT22;43472;48.980;9.646;2023-04-03T16:01:55;11.80;91.00
28725;DHT22;43472;48.980;9.646;2023-04-03T16:06:57;10.50;90.60
28725;DHT22;43472;48.980;9.646;2023-04-03T16:12:03;9.80;91.60
28725;DHT22;43472;48.980;9.646;2023-04-03T16:17:05;9.30;91.70
28725;DHT22;43472;48.980;9.646;2023-04-03T16:22:06;9.40;91.40
28725;DHT22;43472;48.980;9.646;2023-04-03T16:27:08;9.60;91.70
28725;DHT22;43472;48.980;9.646;2023-04-03T16:32:12;10.00;91.10
28725;DHT22;43472;48.980;9.646;2023-04-03T16:37:15;9.60;91.40
28725;DHT22;43472;48.980;9.646;2023-04-03T16:42:17;9.10;92.20
28725;DHT22;43472;48.980;9.646;2023-04-03T16:47:19;8.70;92.20
28725;DHT22;43472;48.980;9.646;2023-04-03T16:52:21;8.60;92.80
28725;DHT22;43472;48.980;9.646;2023-04-03T16:57:23;8.80;94.10
28725;DHT22;43472;48.980;9.646;2023-04-03T17:02:28;8.60;94.50
28725;DHT22;43472;48.980;9.646;2023-04-03T17:07:31;8.40;93.00
28725;DHT22;43472;48.980;9.646;2023-04-03T17:12:33;8.50;93.70
28725;DHT22;43472;48.980;9.646;2023-04-03T17:17:35;8.10;94.40
28725;DHT22;43472;48.980;9.646;2023-04-03T17:22:37;8.10;94.50
28725;DHT22;43472;48.980;9.646;2023-04-03T17:27:39;7.90;95.80
28725;DHT22;43472;48.980;9.646;2023-04-03T17:32:41;7.80;94.30
28725;DHT22;43472;48.980;9.646;2023-04-03T17:37:43;7.80;94.00
28725;DHT22;43472;48.980;9.646;2023-04-03T17:42:45;7.90;94.20
28725;DHT22;43472;48.980;9.646;2023-04-03T17:47:50;7.70;93.90
28725;DHT22;43472;48.980;9.646;2023-04-03T17:52:52;7.60;94.30
28725;DHT22;43472;48.980;9.646;2023-04-03T17:57:54;7.60;94.70
28725;DHT22;43472;48.980;9.646;2023-04-03T18:02:57;7.60;93.80
28725;DHT22;43472;48.980;9.646;2023-04-03T18:08:00;7.40;93.90
28725;DHT22;43472;48.980;9.646;2023-04-03T18:13:05;7.60;95.90
28725;DHT22;43472;48.980;9.646;2023-04-03T18:18:07;7.60;96.00
28725;DHT22;43472;48.980;9.646;2023-04-03T18:23:09;7.40;94.80
28725;DHT22;43472;48.980;9.646;2023-04-03T18:28:12;7.10;95.70
28725;DHT22;43472;48.980;9.646;2023-04-03T18:33:14;7.00;95.90
28725;DHT22;43472;48.980;9.646;2023-04-03T18:38:16;6.90;96.20
28725;DHT22;43472;48.980;9.646;2023-04-03T18:43:18;6.40;94.90
28725;DHT22;43472;48.980;9.646;2023-04-03T18:48:20;6.50;95.30
28725;DHT22;43472;48.980;9.646;2023-04-03T18:53:22;6.60;97.00
28725;DHT22;43472;48.980;9.646;2023-04-03T18:58:24;6.40;97.10
28725;DHT22;43472;48.980;9.646;2023-04-03T19:03:28;6.30;98.80
28725;DHT22;43472;48.980;9.646;2023-04-03T19:08:31;6.20;98.20
28725;DHT22;43472;48.980;9.646;2023-04-03T19:13:33;6.20;97.30
28725;DHT22;43472;48.980;9.646;2023-04-03T19:18:36;5.90;97.40
28725;DHT22;43472;48.980;9.646;2023-04-03T19:23:37;5.90;97.70
28725;DHT22;43472;48.980;9.646;2023-04-03T19:28:43;5.90;97.90
28725;DHT22;43472;48.980;9.646;2023-04-03T19:33:47;5.90;98.60
28725;DHT22;43472;48.980;9.646;2023-04-03T19:38:50;5.80;97.40
28725;DHT22;43472;48.980;9.646;2023-04-03T19:43:53;5.60;98.50
28725;DHT22;43472;48.980;9.646;2023-04-03T19:48:56;5.40;98.90
28725;DHT22;43472;48.980;9.646;2023-04-03T19:53:59;5.20;99.80
28725;DHT22;43472;48.980;9.646;2023-04-03T19:59:01;4.90;98.20
28725;DHT22;43472;48.980;9.646;2023-04-03T20:04:03;4.90;98.60
28725;DHT22;43472;48.980;9.646;2023-04-03T20:09:05;4.90;99.00
28725;DHT22;43472;48.980;9.646;2023-04-03T20:14:07;4.90;99.80
28725;DHT22;43472;48.980;9.646;2023-04-03T20:19:10;5.00;99.00
28725;DHT22;43472;48.980;9.646;2023-04-03T20:24:12;4.90;99.10
28725;DHT22;43472;48.980;9.646;2023-04-03T20:29:17;4.90;99.10
28725;DHT22;43472;48.980;9.646;2023-04-03T20:34:19;4.50;99.90
28725;DHT22;43472;48.980;9.646;2023-04-03T20:39:22;4.30;99.90
28725;DHT22;43472;48.980;9.646;2023-04-03T20:44:25;4.40;99.90
28725;DHT22;43472;48.980;9.646;2023-04-03T20:49:27;4.50;99.90
28725;DHT22;43472;48.980;9.646;2023-04-03T20:54:29;4.30;99.60
28725;DHT22;43472;48.980;9.646;2023-04-03T20:59:31;4.40;99.90
28725;DHT22;43472;48.980;9.646;2023-04-03T21:04:46;4.20;99.90
28725;DHT22;43472;48.980;9.646;2023-04-03T21:20:56;4.00;99.90
28725;DHT22;43472;48.980;9.646;2023-04-03T21:31:01;3.80;99.90
28725;DHT22;43472;48.980;9.646;2023-04-03T21:36:03;3.90;99.90
28725;DHT22;43472;48.980;9.646;2023-04-03T22:01:15;3.40;99.90
28725;DHT22;43472;48.980;9.646;2023-04-03T22:06:17;3.60;99.90
28725;DHT22;43472;48.980;9.646;2023-04-03T22:11:19;3.30;99.90
28725;DHT22;43472;48.980;9.646;2023-04-03T22:41:38;3.30;99.90
28725;DHT22;43472;48.980;9.646;2023-04-03T22:51:42;3.20;99.90
28725;DHT22;43472;48.980;9.646;2023-04-03T22:56:44;3.20;99.90
28725;DHT22;43472;48.980;9.646;2023-04-03T23:16:53;2.90;99.90
28725;DHT22;43472;48.980;9.646;2023-04-03T23:21:55;3.00;99.90
28725;DHT22;43472;48.980;9.646;2023-04-03T23:31:59;3.00;99.90
28725;DHT22;43472;48.980;9.646;2023-04-03T23:42:03;2.80;99.90
28725;DHT22;43472;48.980;9.646;2023-04-03T23:47:09;2.80;99.90
28725;DHT22;43472;48.980;9.646;2023-04-03T23:52:11;2.70;99.90
28725;DHT22;43472;48.980;9.646;2023-04-03T23:57:14;2.60;99.90
